Terminal Aerodrome Forecast
Issued by NWS Wakefield, VA

Home | Current Version | Previous Version | Text Only | Print | Product List | Glossary On
Versions: 1 2 3 4 5 6 7 8 9 10 11 12 13 14 15 16 17 18 19 20 21 22 23 24 25 26 27 28
000
FTUS41 KAKQ 251700
TAFRIC
TAF
KRIC 251739Z 2518/2618 VRB06KT P6SM SCT050
     FM252300 17003KT P6SM SCT050
     FM260900 20003KT 5SM BR FEW050
     FM261300 21008KT P6SM SCT040=

USA.gov is the U.S. government's official web portal to all federal, state and local government web resources and services.